createdAt,value
2023-03-06T00:00:51.098Z,10.02
2023-03-06T00:03:18.818Z,10.40
2023-03-06T00:05:46.455Z,9.80
2023-03-06T00:08:15.326Z,10.45
2023-03-06T00:10:42.893Z,10.15
2023-03-06T00:13:14.219Z,10.50
2023-03-06T00:15:42.023Z,9.85
2023-03-06T00:18:09.519Z,9.40
2023-03-06T00:20:37.229Z,9.63
2023-03-06T00:23:04.705Z,9.57
2023-03-06T00:25:36.747Z,9.85
2023-03-06T00:28:04.226Z,9.85
2023-03-06T00:30:32.097Z,9.57
2023-03-06T00:32:59.524Z,8.75
2023-03-06T00:35:27.022Z,8.43
2023-03-06T00:37:54.521Z,8.98
2023-03-06T00:40:22.564Z,9.38
2023-03-06T00:42:51.444Z,8.82
2023-03-06T00:45:18.928Z,9.40
2023-03-06T00:47:46.395Z,8.60
2023-03-06T00:50:13.859Z,8.93
2023-03-06T00:52:42.075Z,8.85
2023-03-06T00:55:10.358Z,11.15
2023-03-06T00:57:37.871Z,10.27
2023-03-06T01:00:08.640Z,9.88
2023-03-06T01:02:36.179Z,10.13
2023-03-06T01:05:04.015Z,10.70
2023-03-06T01:07:33.998Z,9.57
2023-03-06T01:10:01.653Z,9.95
2023-03-06T01:12:29.110Z,10.98
2023-03-06T01:14:56.731Z,10.88
2023-03-06T01:17:25.491Z,11.00
2023-03-06T01:19:52.949Z,11.48
2023-03-06T01:22:20.414Z,11.95
2023-03-06T01:24:47.854Z,12.88
2023-03-06T01:27:15.318Z,12.70
2023-03-06T01:29:42.790Z,11.35
2023-03-06T01:32:10.261Z,11.70
2023-03-06T01:34:39.055Z,11.80
2023-03-06T01:37:06.586Z,11.05
2023-03-06T01:39:34.038Z,12.80
2023-03-06T01:42:01.548Z,12.70
2023-03-06T01:44:29.005Z,10.95
2023-03-06T01:46:56.482Z,11.93
2023-03-06T01:49:26.672Z,11.52
2023-03-06T01:51:57.089Z,11.52
2023-03-06T01:54:26.606Z,12.35
2023-03-06T01:56:56.445Z,11.40
2023-03-06T01:59:24.831Z,12.00
2023-03-06T02:01:52.302Z,11.27
2023-03-06T02:04:20.180Z,10.23
2023-03-06T02:06:48.832Z,10.63
2023-03-06T02:09:17.642Z,10.35
2023-03-06T02:11:46.309Z,10.13
2023-03-06T02:14:16.200Z,10.40
2023-03-06T02:16:44.155Z,9.95
2023-03-06T02:19:23.081Z,9.57
2023-03-06T02:21:50.792Z,10.45
2023-03-06T02:24:27.930Z,8.95
2023-03-06T02:26:57.801Z,9.23
2023-03-06T02:29:26.995Z,9.15
2023-03-06T02:31:54.490Z,10.23
2023-03-06T02:34:56.664Z,9.10
2023-03-06T02:37:25.999Z,9.68
2023-03-06T02:39:59.584Z,9.70
2023-03-06T02:42:29.815Z,8.95
2023-03-06T02:44:59.694Z,9.40
2023-03-06T02:47:27.174Z,8.57
2023-03-06T02:49:54.630Z,8.93
2023-03-06T02:52:22.226Z,8.82
2023-03-06T02:54:49.694Z,9.07
2023-03-06T02:57:17.148Z,8.70
2023-03-06T02:59:45.965Z,7.60
2023-03-06T03:02:13.404Z,7.68
2023-03-06T03:04:40.965Z,7.45
2023-03-06T03:07:08.891Z,6.68
2023-03-06T03:09:37.239Z,6.78
2023-03-06T03:12:06.432Z,6.95
2023-03-06T03:14:33.953Z,7.20
2023-03-06T03:17:02.788Z,6.32
2023-03-06T03:19:30.256Z,6.20
2023-03-06T03:21:57.838Z,6.18
2023-03-06T03:24:25.500Z,5.80
2023-03-06T03:26:52.997Z,6.90
2023-03-06T03:29:20.749Z,6.28
2023-03-06T03:31:48.234Z,6.07
2023-03-06T03:34:18.889Z,5.78
2023-03-06T03:36:46.606Z,6.90
2023-03-06T03:39:14.258Z,5.38
2023-03-06T03:41:41.731Z,5.13
2023-03-06T03:44:09.250Z,5.57
2023-03-06T03:46:36.890Z,5.55
2023-03-06T03:49:04.488Z,5.55
2023-03-06T03:51:33.509Z,5.15
2023-03-06T03:54:01.057Z,4.95
2023-03-06T03:56:28.562Z,4.50
2023-03-06T03:58:55.997Z,4.57
2023-03-06T04:01:23.512Z,4.53
2023-03-06T04:03:51.252Z,5.10
2023-03-06T04:06:19.225Z,4.80
2023-03-06T04:08:48.024Z,4.47
2023-03-06T04:11:15.548Z,4.78
2023-03-06T04:13:42.970Z,4.28
2023-03-06T04:16:10.514Z,4.72
2023-03-06T04:18:38.011Z,4.75
2023-03-06T04:21:05.778Z,4.35
2023-03-06T04:23:33.526Z,5.00
2023-03-06T04:26:02.396Z,5.28
2023-03-06T04:28:29.865Z,4.10
2023-03-06T04:30:57.334Z,4.55
2023-03-06T04:33:24.958Z,4.57
2023-03-06T04:35:52.486Z,4.97
2023-03-06T04:38:19.999Z,4.53
2023-03-06T04:40:49.621Z,4.38
2023-03-06T04:43:18.677Z,4.47
2023-03-06T04:45:46.126Z,4.43
2023-03-06T04:48:14.662Z,4.30
2023-03-06T04:50:42.453Z,4.20
2023-03-06T04:53:11.026Z,4.05
2023-03-06T04:55:38.733Z,3.58
2023-03-06T04:58:06.247Z,4.00
2023-03-06T05:00:35.165Z,3.45
2023-03-06T05:03:02.844Z,3.42
2023-03-06T05:05:30.494Z,3.80
2023-03-06T05:07:58.326Z,3.10
2023-03-06T05:10:25.887Z,3.17
2023-03-06T05:12:53.360Z,3.70
2023-03-06T05:15:20.906Z,2.70
2023-03-06T05:17:49.820Z,3.03
2023-03-06T05:20:18.025Z,2.70
2023-03-06T05:22:45.705Z,2.83
2023-03-06T05:25:13.182Z,2.92
2023-03-06T05:27:40.774Z,2.78
2023-03-06T05:30:10.716Z,2.63
2023-03-06T05:32:38.221Z,2.50
2023-03-06T05:35:07.962Z,3.25
2023-03-06T05:37:35.495Z,2.70
2023-03-06T05:40:06.685Z,2.95
2023-03-06T05:42:34.164Z,3.00
2023-03-06T05:45:02.476Z,3.00
2023-03-06T05:47:29.943Z,3.00
2023-03-06T05:49:57.396Z,3.15
2023-03-06T05:52:26.326Z,2.85
2023-03-06T05:54:54.982Z,2.95
2023-03-06T05:57:23.939Z,2.95
2023-03-06T05:59:51.981Z,2.95
2023-03-06T06:02:19.976Z,3.13
2023-03-06T06:04:47.485Z,3.15
2023-03-06T06:07:16.080Z,2.92
2023-03-06T06:09:46.288Z,3.00
2023-03-06T06:12:14.839Z,3.50
2023-03-06T06:14:42.386Z,3.20
2023-03-06T06:17:10.429Z,3.08
2023-03-06T06:19:37.868Z,3.20
2023-03-06T06:22:05.788Z,3.15
2023-03-06T06:24:33.417Z,3.40
2023-03-06T06:27:03.961Z,3.10
2023-03-06T06:29:32.036Z,3.10
2023-03-06T06:31:59.980Z,2.80
2023-03-06T06:34:28.609Z,3.00
2023-03-06T06:36:56.054Z,2.88
2023-03-06T06:39:24.471Z,3.45
2023-03-06T06:42:09.722Z,3.08
2023-03-06T06:44:41.584Z,2.92
2023-03-06T06:47:25.820Z,3.13
2023-03-06T06:49:54.635Z,3.17
2023-03-06T06:52:22.340Z,3.25
2023-03-06T06:54:49.888Z,3.10
2023-03-06T06:57:17.965Z,2.55
2023-03-06T06:59:46.749Z,2.83
2023-03-06T07:02:15.741Z,3.22
2023-03-06T07:05:00.190Z,2.60
2023-03-06T07:07:30.525Z,2.80
2023-03-06T07:09:58.002Z,2.95
2023-03-06T07:12:25.505Z,2.72
2023-03-06T07:14:54.273Z,2.72
2023-03-06T07:17:21.792Z,2.22
2023-03-06T07:19:49.209Z,2.25
2023-03-06T07:22:16.749Z,2.00
2023-03-06T07:24:44.222Z,1.85
2023-03-06T07:27:11.685Z,2.10
2023-03-06T07:29:39.151Z,1.60
2023-03-06T07:32:08.133Z,1.90
2023-03-06T07:34:35.596Z,2.40
2023-03-06T07:37:03.135Z,2.40
2023-03-06T07:39:30.756Z,2.58
2023-03-06T07:41:58.788Z,2.65
2023-03-06T07:44:26.233Z,2.63
2023-03-06T07:46:53.960Z,2.55
2023-03-06T07:49:22.965Z,2.45
2023-03-06T07:51:50.466Z,2.33
2023-03-06T07:54:17.903Z,2.30
2023-03-06T07:56:45.363Z,2.00
2023-03-06T07:59:12.930Z,2.05
2023-03-06T08:01:40.406Z,2.08
2023-03-06T08:04:07.927Z,2.38
2023-03-06T08:06:37.137Z,2.22
2023-03-06T08:09:05.039Z,2.22
2023-03-06T08:11:33.280Z,1.88
2023-03-06T08:14:01.275Z,2.00
2023-03-06T08:16:30.386Z,2.10
2023-03-06T08:18:58.499Z,2.10
2023-03-06T08:21:27.859Z,2.33
2023-03-06T08:23:57.126Z,1.98
2023-03-06T08:26:26.760Z,1.92
2023-03-06T08:28:56.596Z,2.00
2023-03-06T08:31:29.346Z,1.77
2023-03-06T08:33:58.141Z,1.80
2023-03-06T08:36:25.823Z,1.48
2023-03-06T08:38:53.808Z,1.70
2023-03-06T08:41:22.733Z,1.58
2023-03-06T08:43:50.766Z,1.38
2023-03-06T08:46:19.102Z,1.35
2023-03-06T08:48:47.801Z,1.10
2023-03-06T08:51:15.628Z,1.30
2023-03-06T08:53:44.387Z,1.13
2023-03-06T08:56:17.220Z,1.70
2023-03-06T08:58:46.265Z,1.60
2023-03-06T09:01:15.384Z,1.00
2023-03-06T09:03:43.332Z,1.10
2023-03-06T09:06:11.371Z,1.45
2023-03-06T09:08:43.025Z,1.20
2023-03-06T09:11:11.379Z,1.13
2023-03-06T09:13:38.998Z,1.35
2023-03-06T09:16:09.001Z,1.30
2023-03-06T09:18:37.245Z,1.10
2023-03-06T09:21:05.446Z,1.40
2023-03-06T09:23:33.326Z,1.60
2023-03-06T09:26:02.368Z,1.73
2023-03-06T09:28:30.178Z,1.60
2023-03-06T09:30:57.958Z,1.48
2023-03-06T09:33:28.774Z,1.83
2023-03-06T09:35:58.700Z,1.63
2023-03-06T09:38:27.940Z,1.40
2023-03-06T09:41:02.807Z,1.80
2023-03-06T09:43:32.575Z,1.48
2023-03-06T09:46:00.525Z,1.52
2023-03-06T09:48:38.127Z,1.20
2023-03-06T09:51:12.101Z,1.30
2023-03-06T09:53:49.640Z,1.80
2023-03-06T09:56:19.278Z,1.77
2023-03-06T09:58:48.858Z,1.50
2023-03-06T10:01:20.006Z,2.80
2023-03-06T10:03:51.027Z,5.47
2023-03-06T10:06:22.536Z,5.30
2023-03-06T10:08:53.707Z,6.32
2023-03-06T10:11:26.296Z,4.85
2023-03-06T10:13:57.399Z,2.58
2023-03-06T10:16:27.927Z,1.67
2023-03-06T10:18:58.450Z,2.10
2023-03-06T10:21:43.866Z,2.28
2023-03-06T10:24:20.211Z,2.35
2023-03-06T10:26:50.821Z,2.47
2023-03-06T10:29:31.723Z,1.75
2023-03-06T10:32:04.196Z,2.28
2023-03-06T10:34:37.629Z,2.35
2023-03-06T10:37:13.527Z,2.50
2023-03-06T10:39:40.997Z,2.05
2023-03-06T10:42:09.417Z,2.30
2023-03-06T10:44:36.916Z,2.60
2023-03-06T10:47:28.509Z,3.20
2023-03-06T10:50:01.035Z,3.15
2023-03-06T10:52:30.906Z,1.70
2023-03-06T10:55:14.434Z,1.70
2023-03-06T10:57:41.882Z,1.65
2023-03-06T11:00:25.898Z,1.70
2023-03-06T11:03:06.444Z,1.70
2023-03-06T11:05:35.214Z,1.92
2023-03-06T11:08:03.147Z,1.80
2023-03-06T11:10:31.959Z,2.25
2023-03-06T11:13:01.413Z,1.73
2023-03-06T11:15:29.424Z,3.25
2023-03-06T11:17:59.866Z,3.15
2023-03-06T11:20:41.327Z,2.15
2023-03-06T11:23:19.362Z,1.60
2023-03-06T11:25:50.272Z,1.50
2023-03-06T11:28:22.822Z,1.10
2023-03-06T11:30:52.330Z,1.33
2023-03-06T11:33:26.449Z,1.20
2023-03-06T11:35:58.857Z,1.10
2023-03-06T11:38:37.072Z,1.20
2023-03-06T11:41:07.331Z,1.17
2023-03-06T11:43:40.865Z,0.98
2023-03-06T11:46:13.114Z,1.20
2023-03-06T11:48:44.745Z,1.40
2023-03-06T11:51:15.451Z,1.65
2023-03-06T11:53:44.322Z,1.00
2023-03-06T11:56:22.914Z,1.00
2023-03-06T11:59:26.081Z,1.25
2023-03-06T12:02:00.657Z,1.30
2023-03-06T12:04:50.977Z,1.20
2023-03-06T12:07:24.831Z,1.42
2023-03-06T12:09:57.299Z,1.20
2023-03-06T12:12:37.877Z,1.35
2023-03-06T12:15:20.226Z,1.38
2023-03-06T12:18:00.007Z,1.30
2023-03-06T12:20:36.377Z,1.40
2023-03-06T12:23:15.287Z,1.33
2023-03-06T12:25:45.592Z,1.35
2023-03-06T12:28:27.957Z,1.08
2023-03-06T12:31:11.504Z,1.38
2023-03-06T12:33:45.748Z,1.63
2023-03-06T12:36:29.569Z,1.08
2023-03-06T12:39:01.747Z,1.58
2023-03-06T12:41:38.934Z,1.38
2023-03-06T12:44:18.255Z,1.10
2023-03-06T12:46:48.078Z,1.40
2023-03-06T12:49:31.098Z,2.00
2023-03-06T12:52:00.939Z,1.55
2023-03-06T12:54:29.720Z,1.30
2023-03-06T12:56:58.991Z,1.42
2023-03-06T12:59:44.528Z,1.20
2023-03-06T13:02:39.951Z,1.70
2023-03-06T13:05:37.072Z,2.00
2023-03-06T13:08:44.365Z,1.40
2023-03-06T13:11:29.505Z,1.58
2023-03-06T13:13:58.434Z,1.45
2023-03-06T13:16:30.217Z,1.67
2023-03-06T13:22:16.494Z,1.48
2023-03-06T13:24:45.450Z,1.15
2023-03-06T13:27:13.543Z,1.70
2023-03-06T13:30:07.791Z,1.63
2023-03-06T13:32:36.330Z,1.30
2023-03-06T13:35:47.315Z,1.40
2023-03-06T13:38:30.735Z,1.20
2023-03-06T13:41:31.596Z,1.10
2023-03-06T13:44:00.213Z,1.20
2023-03-06T13:46:31.030Z,1.35
2023-03-06T13:49:06.793Z,0.85
2023-03-06T13:51:36.757Z,1.02
2023-03-06T13:54:19.716Z,1.17
2023-03-06T13:57:13.923Z,1.55
2023-03-06T14:00:20.664Z,1.30
2023-03-06T14:03:36.131Z,1.27
2023-03-06T14:06:47.897Z,1.58
2023-03-06T14:09:23.561Z,0.82
2023-03-06T14:11:53.788Z,1.40
2023-03-06T14:14:25.024Z,1.20
2023-03-06T14:16:53.602Z,0.98
2023-03-06T14:19:22.464Z,1.30
2023-03-06T14:21:56.688Z,1.20
2023-03-06T14:24:32.705Z,1.55
2023-03-06T14:27:00.164Z,1.80
2023-03-06T14:29:28.715Z,1.98
2023-03-06T14:31:57.923Z,1.50
2023-03-06T14:34:27.509Z,1.65
2023-03-06T14:36:57.336Z,1.60
2023-03-06T14:39:30.634Z,1.80
2023-03-06T14:42:06.973Z,1.63
2023-03-06T14:44:34.466Z,1.30
2023-03-06T14:47:19.245Z,1.50
2023-03-06T14:49:46.887Z,1.63
2023-03-06T14:52:19.872Z,1.63
2023-03-06T14:54:47.694Z,1.50
2023-03-06T14:57:16.578Z,1.85
2023-03-06T14:59:47.523Z,1.65
2023-03-06T15:02:18.636Z,1.40
2023-03-06T15:04:47.810Z,1.70
2023-03-06T15:07:17.632Z,1.45
2023-03-06T15:09:50.013Z,1.40
2023-03-06T15:12:35.610Z,1.40
2023-03-06T15:15:05.002Z,1.70
2023-03-06T15:17:33.324Z,1.35
2023-03-06T15:20:01.403Z,1.17
2023-03-06T15:22:32.055Z,1.30
2023-03-06T15:25:27.671Z,3.67
2023-03-06T15:27:56.494Z,1.42
2023-03-06T15:30:26.886Z,1.25
2023-03-06T15:33:10.043Z,1.13
2023-03-06T15:35:38.545Z,1.35
2023-03-06T15:38:23.671Z,1.30
2023-03-06T15:40:56.999Z,1.90
2023-03-06T15:43:24.465Z,1.45
2023-03-06T15:45:52.276Z,1.90
2023-03-06T15:48:19.713Z,1.50
2023-03-06T15:50:47.231Z,1.25
2023-03-06T15:53:14.726Z,1.50
2023-03-06T15:55:42.237Z,1.98
2023-03-06T15:58:15.706Z,1.67
2023-03-06T16:00:43.416Z,1.60
2023-03-06T16:03:11.799Z,1.40
2023-03-06T16:05:39.681Z,1.48
2023-03-06T16:08:07.578Z,1.70
2023-03-06T16:10:37.673Z,1.60
2023-03-06T16:13:07.312Z,1.65
2023-03-06T16:15:39.687Z,2.25
2023-03-06T16:18:07.780Z,1.77
2023-03-06T16:20:35.356Z,2.00
2023-03-06T16:23:07.838Z,2.03
2023-03-06T16:25:35.382Z,2.20
2023-03-06T16:28:03.349Z,2.00
2023-03-06T16:30:32.326Z,1.90
2023-03-06T16:33:01.712Z,2.00
2023-03-06T16:35:29.388Z,2.35
2023-03-06T16:37:56.933Z,1.90
2023-03-06T16:40:26.891Z,2.53
2023-03-06T16:42:55.274Z,2.10
2023-03-06T16:45:23.569Z,2.30
2023-03-06T16:47:51.469Z,2.38
2023-03-06T16:50:25.077Z,2.60
2023-03-06T16:52:54.097Z,2.38
2023-03-06T16:55:22.012Z,2.35
2023-03-06T16:57:49.633Z,2.60
2023-03-06T17:00:18.686Z,2.55
2023-03-06T17:02:48.759Z,3.20
2023-03-06T17:05:16.307Z,3.20
2023-03-06T17:07:45.519Z,3.50
2023-03-06T17:10:16.485Z,3.35
2023-03-06T17:12:44.777Z,3.88
2023-03-06T17:15:12.332Z,4.43
2023-03-06T17:17:39.847Z,4.18
2023-03-06T17:20:09.028Z,4.80
2023-03-06T17:22:38.610Z,4.55
2023-03-06T17:25:08.725Z,4.43
2023-03-06T17:27:37.147Z,5.03
2023-03-06T17:30:05.413Z,4.15
2023-03-06T17:32:33.245Z,4.57
2023-03-06T17:35:00.809Z,5.00
2023-03-06T17:37:28.316Z,4.20
2023-03-06T17:39:55.816Z,3.75
2023-03-06T17:42:24.585Z,4.45
2023-03-06T17:44:52.970Z,3.42
2023-03-06T17:47:20.471Z,3.53
2023-03-06T17:49:48.051Z,4.10
2023-03-06T17:52:15.701Z,4.80
2023-03-06T17:54:43.902Z,4.40
2023-03-06T17:57:11.378Z,4.85
2023-03-06T17:59:40.256Z,4.28
2023-03-06T18:02:07.737Z,4.47
2023-03-06T18:04:35.274Z,4.28
2023-03-06T18:07:02.741Z,5.07
2023-03-06T18:09:30.347Z,6.43
2023-03-06T18:11:57.832Z,6.47
2023-03-06T18:14:25.323Z,6.65
2023-03-06T18:16:54.158Z,7.53
2023-03-06T18:19:21.652Z,15.32
2023-03-06T18:21:49.171Z,14.68
2023-03-06T18:24:16.729Z,12.55
2023-03-06T18:26:44.182Z,8.98
2023-03-06T18:29:11.739Z,8.50
2023-03-06T18:31:40.253Z,6.90
2023-03-06T18:34:10.945Z,7.47
2023-03-06T18:36:39.536Z,8.18
2023-03-06T18:39:08.826Z,9.02
2023-03-06T18:41:36.951Z,11.60
2023-03-06T18:44:04.976Z,11.02
2023-03-06T18:46:34.364Z,10.43
2023-03-06T18:49:02.367Z,10.77
2023-03-06T18:51:31.813Z,9.85
2023-03-06T18:54:01.684Z,10.27
2023-03-06T18:56:29.481Z,9.30
2023-03-06T18:58:57.309Z,8.68
2023-03-06T19:01:25.493Z,9.05
2023-03-06T19:03:53.213Z,8.90
2023-03-06T19:06:20.728Z,8.30
2023-03-06T19:08:49.555Z,8.85
2023-03-06T19:11:18.148Z,9.90
2023-03-06T19:13:45.882Z,13.80
2023-03-06T19:16:18.055Z,13.82
2023-03-06T19:18:45.691Z,11.68
2023-03-06T19:21:15.207Z,10.63
2023-03-06T19:23:43.142Z,10.35
2023-03-06T19:26:12.013Z,11.55
2023-03-06T19:28:41.243Z,12.98
2023-03-06T19:31:10.529Z,14.05
2023-03-06T19:33:38.535Z,22.83
2023-03-06T19:36:07.375Z,21.92
2023-03-06T19:38:35.090Z,21.95
2023-03-06T19:41:02.805Z,24.00
2023-03-06T19:43:32.173Z,25.02
2023-03-06T19:46:00.641Z,27.05
2023-03-06T19:48:28.150Z,29.35
2023-03-06T19:50:55.636Z,28.95
2023-03-06T19:53:23.130Z,25.60
2023-03-06T19:55:50.606Z,26.02
2023-03-06T19:58:18.171Z,17.27
2023-03-06T20:00:47.073Z,16.08
2023-03-06T20:03:14.544Z,16.38
2023-03-06T20:05:46.899Z,14.98
2023-03-06T20:08:14.383Z,13.00
2023-03-06T20:10:41.814Z,14.20
2023-03-06T20:13:09.323Z,12.52
2023-03-06T20:15:37.056Z,15.68
2023-03-06T20:18:06.377Z,15.38
2023-03-06T20:20:34.165Z,15.38
2023-03-06T20:23:04.500Z,15.77
2023-03-06T20:25:31.999Z,13.77
2023-03-06T20:27:59.529Z,14.88
2023-03-06T20:30:36.678Z,15.10
2023-03-06T20:33:06.774Z,14.75
2023-03-06T20:35:34.265Z,14.43
2023-03-06T20:38:01.863Z,13.50
2023-03-06T20:40:29.381Z,13.35
2023-03-06T20:42:56.872Z,12.90
2023-03-06T20:45:24.351Z,12.98
2023-03-06T20:47:52.057Z,14.68
2023-03-06T20:50:21.097Z,13.85
2023-03-06T20:52:48.770Z,14.80
2023-03-06T20:55:16.365Z,14.98
2023-03-06T20:57:43.911Z,15.98
2023-03-06T21:00:12.851Z,15.50
2023-03-06T21:02:40.345Z,14.73
2023-03-06T21:05:08.943Z,15.30
2023-03-06T21:07:37.861Z,14.90
2023-03-06T21:10:06.448Z,14.20
2023-03-06T21:12:33.969Z,13.05
2023-03-06T21:15:01.543Z,14.40
2023-03-06T21:17:30.455Z,14.38
2023-03-06T21:19:58.404Z,14.43
2023-03-06T21:22:25.975Z,13.68
2023-03-06T21:24:54.842Z,13.48
2023-03-06T21:27:22.398Z,14.43
2023-03-06T21:29:49.853Z,14.75
2023-03-06T21:32:17.414Z,13.02
2023-03-06T21:34:45.273Z,14.32
2023-03-06T21:37:12.802Z,14.90
2023-03-06T21:39:40.285Z,14.75
2023-03-06T21:42:09.231Z,15.85
2023-03-06T21:44:36.999Z,14.13
2023-03-06T21:47:04.484Z,13.70
2023-03-06T21:49:32.040Z,13.55
2023-03-06T21:51:59.557Z,13.48
2023-03-06T21:54:29.357Z,14.45
2023-03-06T21:56:56.908Z,14.50
2023-03-06T21:59:25.766Z,14.98
2023-03-06T22:01:53.287Z,14.40
2023-03-06T22:04:20.804Z,14.05
2023-03-06T22:06:48.286Z,14.32
2023-03-06T22:09:18.995Z,12.70
2023-03-06T22:11:46.536Z,13.20
2023-03-06T22:14:14.918Z,14.68
2023-03-06T22:16:44.045Z,11.98
2023-03-06T22:19:11.807Z,13.63
2023-03-06T22:21:39.500Z,12.48
2023-03-06T22:24:07.963Z,11.45
2023-03-06T22:26:35.593Z,11.80
2023-03-06T22:29:03.177Z,10.43
2023-03-06T22:31:30.778Z,10.90
2023-03-06T22:34:01.659Z,10.63
2023-03-06T22:36:31.342Z,8.80
2023-03-06T22:39:00.127Z,14.50
2023-03-06T22:41:28.194Z,14.05
2023-03-06T22:43:56.775Z,15.25
2023-03-06T22:46:24.392Z,16.45
2023-03-06T22:48:56.919Z,20.33
2023-03-06T22:51:26.132Z,18.92
2023-03-06T22:53:53.810Z,18.55
2023-03-06T22:56:22.389Z,19.13
2023-03-06T22:58:50.089Z,19.10
2023-03-06T23:01:19.715Z,17.20
2023-03-06T23:03:48.808Z,19.17
2023-03-06T23:06:18.202Z,18.42
2023-03-06T23:08:50.305Z,18.17
2023-03-06T23:11:19.496Z,16.90
2023-03-06T23:13:47.462Z,17.13
2023-03-06T23:16:15.165Z,17.05
2023-03-06T23:18:42.894Z,16.00
2023-03-06T23:21:12.194Z,16.80
2023-03-06T23:23:40.091Z,17.08
2023-03-06T23:26:09.603Z,17.02
2023-03-06T23:28:37.151Z,17.23
2023-03-06T23:31:08.036Z,18.23
2023-03-06T23:33:36.011Z,13.85
2023-03-06T23:36:03.794Z,19.13
2023-03-06T23:38:31.349Z,18.23
2023-03-06T23:41:02.629Z,18.65
2023-03-06T23:43:31.710Z,20.25
2023-03-06T23:45:59.727Z,18.92
2023-03-06T23:48:28.022Z,19.15
2023-03-06T23:50:55.554Z,20.08
2023-03-06T23:53:23.248Z,19.85
2023-03-06T23:55:51.435Z,17.13
2023-03-06T23:58:19.846Z,22.50
